createdAt,value
2018-05-25T00:02:25.312Z,39.53
2018-05-25T00:04:52.913Z,69.57
2018-05-25T00:07:20.484Z,68.97
2018-05-25T00:09:48.091Z,80.10
2018-05-25T00:12:15.691Z,81.03
2018-05-25T00:14:43.257Z,80.87
2018-05-25T00:17:10.855Z,76.73
2018-05-25T00:19:39.230Z,63.37
2018-05-25T00:22:06.836Z,65.13
2018-05-25T00:24:34.402Z,77.43
2018-05-25T00:27:02.009Z,93.47
2018-05-25T00:29:29.578Z,62.30
2018-05-25T00:31:57.200Z,127.67
2018-05-25T00:34:24.772Z,197.30
2018-05-25T00:36:52.341Z,236.47
2018-05-25T00:39:19.952Z,271.33
2018-05-25T00:41:47.533Z,363.97
2018-05-25T00:44:15.148Z,303.93
2018-05-25T00:46:42.729Z,293.00
2018-05-25T00:49:10.291Z,282.90
2018-05-25T00:51:38.661Z,269.10
2018-05-25T00:54:07.029Z,328.33
2018-05-25T00:56:35.398Z,324.17
2018-05-25T00:59:03.148Z,354.60
2018-05-25T01:01:30.759Z,189.53
2018-05-25T01:03:58.349Z,239.03
2018-05-25T01:06:25.948Z,227.63
2018-05-25T01:08:53.523Z,156.53
2018-05-25T01:11:21.136Z,125.60
2018-05-25T01:13:48.711Z,130.47
2018-05-25T01:16:16.321Z,60.50
2018-05-25T01:18:43.893Z,56.70
2018-05-25T01:21:11.497Z,64.87
2018-05-25T01:23:39.073Z,62.33
2018-05-25T01:26:06.672Z,87.83
2018-05-25T01:28:34.246Z,67.53
2018-05-25T01:31:01.857Z,83.57
2018-05-25T01:33:29.421Z,75.77
2018-05-25T01:35:57.028Z,133.07
2018-05-25T01:38:24.652Z,127.60
2018-05-25T01:40:52.990Z,131.00
2018-05-25T01:43:20.600Z,223.00
2018-05-25T01:45:48.183Z,279.50
2018-05-25T01:48:15.760Z,242.70
2018-05-25T01:50:43.358Z,222.10
2018-05-25T01:53:10.932Z,278.67
2018-05-25T01:55:39.304Z,225.50
2018-05-25T01:58:06.912Z,277.70
2018-05-25T02:00:34.532Z,231.27
2018-05-25T02:03:02.914Z,217.90
2018-05-25T02:05:31.286Z,172.67
2018-05-25T02:07:59.043Z,154.73
2018-05-25T02:10:26.620Z,121.40
2018-05-25T02:12:54.220Z,118.37
2018-05-25T02:15:21.784Z,85.00
2018-05-25T02:17:49.382Z,84.77
2018-05-25T02:20:16.953Z,67.97
2018-05-25T02:22:44.555Z,61.90
2018-05-25T02:25:12.120Z,63.23
2018-05-25T02:27:39.725Z,59.80
2018-05-25T02:30:07.340Z,65.53
2018-05-25T02:32:34.945Z,61.20
2018-05-25T02:35:02.560Z,78.70
2018-05-25T02:37:30.138Z,94.63
2018-05-25T02:39:57.707Z,85.30
2018-05-25T02:42:25.318Z,128.47
2018-05-25T02:44:53.650Z,113.63
2018-05-25T02:47:21.260Z,142.33
2018-05-25T02:49:48.826Z,147.87
2018-05-25T02:52:16.433Z,199.27
2018-05-25T02:54:44.016Z,231.20
2018-05-25T02:57:11.716Z,283.03
2018-05-25T02:59:39.237Z,313.17
2018-05-25T03:02:06.814Z,321.80
2018-05-25T03:04:35.197Z,314.97
2018-05-25T03:07:03.531Z,360.60
2018-05-25T03:09:31.140Z,407.80
2018-05-25T03:11:58.712Z,429.30
2018-05-25T03:14:26.319Z,432.60
2018-05-25T03:16:53.890Z,441.13
2018-05-25T03:19:21.528Z,464.93
2018-05-25T03:21:49.103Z,445.40
2018-05-25T03:24:16.704Z,478.20
2018-05-25T03:26:45.082Z,464.83
2018-05-25T03:29:13.428Z,448.20
2018-05-25T03:31:41.036Z,453.00
2018-05-25T03:34:08.646Z,460.40
2018-05-25T03:36:36.256Z,474.03
2018-05-25T03:39:03.831Z,488.73
2018-05-25T03:41:31.436Z,513.70
2018-05-25T03:43:59.048Z,508.80
2018-05-25T03:46:26.629Z,500.77
2018-05-25T03:48:54.240Z,482.30
2018-05-25T03:51:21.863Z,498.03
2018-05-25T03:53:49.447Z,525.33
2018-05-25T03:56:17.056Z,534.97
2018-05-25T03:58:57.265Z,552.87
2018-05-25T04:01:36.605Z,555.70
2018-05-25T04:04:05.108Z,562.40
2018-05-25T04:06:32.720Z,560.63
2018-05-25T04:09:00.297Z,554.67
2018-05-25T04:11:27.902Z,565.10
2018-05-25T04:13:56.245Z,563.30
2018-05-25T04:16:23.868Z,575.63
2018-05-25T04:18:51.440Z,580.43
2018-05-25T04:21:19.052Z,591.07
2018-05-25T04:23:46.660Z,586.50
2018-05-25T04:26:14.234Z,591.73
2018-05-25T04:28:41.867Z,583.40
2018-05-25T04:31:09.468Z,593.77
2018-05-25T04:33:37.056Z,589.03
2018-05-25T04:36:04.675Z,587.93
2018-05-25T04:38:32.286Z,596.97
2018-05-25T04:41:00.668Z,593.60
2018-05-25T04:43:28.242Z,593.17
2018-05-25T04:45:56.608Z,580.13
2018-05-25T04:48:24.948Z,570.47
2018-05-25T04:50:52.736Z,580.17
2018-05-25T04:53:20.299Z,589.63
2018-05-25T04:55:47.907Z,589.47
2018-05-25T04:58:15.520Z,603.57
2018-05-25T05:00:43.095Z,591.80
2018-05-25T05:03:10.699Z,599.97
2018-05-25T05:05:38.274Z,607.43
2018-05-25T05:08:05.900Z,614.23
2018-05-25T05:10:33.480Z,628.63
2018-05-25T05:13:01.064Z,634.87
2018-05-25T05:15:28.672Z,632.63
2018-05-25T05:17:56.280Z,625.97
2018-05-25T05:20:23.866Z,608.23
2018-05-25T05:22:51.500Z,612.73
2018-05-25T05:25:19.088Z,640.50
2018-05-25T05:27:46.669Z,619.80
2018-05-25T05:30:14.289Z,611.10
2018-05-25T05:32:41.856Z,587.70
2018-05-25T05:35:09.479Z,608.60
2018-05-25T05:37:37.211Z,630.20
2018-05-25T05:40:04.794Z,641.07
2018-05-25T05:42:32.409Z,593.20
2018-05-25T05:45:00.032Z,625.33
2018-05-25T05:47:27.604Z,618.60
2018-05-25T05:49:55.177Z,645.67
2018-05-25T05:52:22.784Z,667.00
2018-05-25T05:54:50.397Z,664.70
2018-05-25T05:57:17.973Z,652.47
2018-05-25T05:59:45.579Z,637.97
2018-05-25T06:02:13.926Z,642.97
2018-05-25T06:04:41.535Z,660.70
2018-05-25T06:07:09.136Z,613.33
2018-05-25T06:09:36.703Z,609.70
2018-05-25T06:12:04.325Z,482.27
2018-05-25T06:14:31.937Z,324.17
2018-05-25T06:16:59.523Z,371.47
2018-05-25T06:19:27.133Z,375.83
2018-05-25T06:21:54.749Z,381.43
2018-05-25T06:24:22.332Z,373.70
2018-05-25T06:26:49.964Z,334.20
2018-05-25T06:29:17.545Z,266.03
2018-05-25T06:31:45.171Z,247.43
2018-05-25T06:34:12.760Z,225.87
2018-05-25T06:36:40.405Z,203.40
2018-05-25T06:39:08.001Z,181.87
2018-05-25T06:41:35.622Z,241.67
2018-05-25T06:44:03.261Z,237.37
2018-05-25T06:46:30.844Z,250.60
2018-05-25T06:48:58.476Z,215.13
2018-05-25T06:51:26.078Z,210.00
2018-05-25T06:53:53.743Z,168.00
2018-05-25T06:56:21.324Z,203.30
2018-05-25T06:58:48.917Z,249.67
2018-05-25T07:01:16.534Z,252.17
2018-05-25T07:03:44.116Z,184.07
2018-05-25T07:06:11.737Z,220.33
2018-05-25T07:08:39.350Z,185.20
2018-05-25T07:11:06.976Z,186.63
2018-05-25T07:13:34.559Z,184.30
2018-05-25T07:16:02.184Z,177.03
2018-05-25T07:18:29.776Z,159.57
2018-05-25T07:20:57.392Z,156.33
2018-05-25T07:23:24.993Z,155.57
2018-05-25T07:25:52.609Z,134.00
2018-05-25T07:28:20.256Z,129.80
2018-05-25T07:30:47.890Z,116.53
2018-05-25T07:33:15.479Z,127.23
2018-05-25T07:35:43.129Z,110.17
2018-05-25T07:38:10.749Z,106.83
2018-05-25T07:40:38.371Z,98.90
2018-05-25T07:43:05.946Z,95.83
2018-05-25T07:45:33.520Z,95.40
2018-05-25T07:48:01.148Z,94.97
2018-05-25T07:50:29.706Z,91.63
2018-05-25T07:52:57.327Z,98.17
2018-05-25T07:55:24.961Z,101.63
2018-05-25T07:57:52.593Z,105.47
2018-05-25T08:00:20.206Z,111.43
2018-05-25T08:02:47.773Z,116.27
2018-05-25T08:05:15.392Z,122.03
2018-05-25T08:07:42.979Z,129.87
2018-05-25T08:10:10.622Z,130.53
2018-05-25T08:12:38.306Z,137.17
2018-05-25T08:15:05.922Z,140.43
2018-05-25T08:17:33.559Z,146.47
2018-05-25T08:20:01.143Z,139.53
2018-05-25T08:22:28.772Z,142.47
2018-05-25T08:24:56.357Z,145.33
2018-05-25T08:27:23.989Z,146.63
2018-05-25T08:29:51.587Z,160.50
2018-05-25T08:32:19.163Z,163.83
2018-05-25T08:34:46.773Z,174.60
2018-05-25T08:37:14.361Z,179.37
2018-05-25T08:39:41.984Z,176.70
2018-05-25T08:42:09.570Z,161.23
2018-05-25T08:44:37.201Z,161.43
2018-05-25T08:47:04.798Z,162.30
2018-05-25T08:49:32.448Z,162.20
2018-05-25T08:52:00.048Z,166.03
2018-05-25T08:54:27.680Z,167.87
2018-05-25T08:56:56.038Z,165.20
2018-05-25T08:59:23.616Z,175.33
2018-05-25T09:01:52.009Z,198.37
2018-05-25T09:04:19.643Z,175.87
2018-05-25T09:06:47.303Z,178.53
2018-05-25T09:09:14.886Z,192.97
2018-05-25T09:11:43.285Z,211.67
2018-05-25T09:14:10.866Z,238.80
2018-05-25T09:16:38.533Z,243.50
2018-05-25T09:19:06.108Z,250.77
2018-05-25T09:21:33.736Z,373.90
2018-05-25T09:24:01.337Z,377.23
2018-05-25T09:26:28.963Z,359.93
2018-05-25T09:28:56.591Z,386.03
2018-05-25T09:31:24.176Z,384.37
2018-05-25T09:33:51.806Z,392.23
2018-05-25T09:36:19.493Z,397.50
2018-05-25T09:38:47.077Z,415.30
2018-05-25T09:41:14.684Z,433.10
2018-05-25T09:43:42.315Z,417.77
2018-05-25T09:46:09.947Z,469.43
2018-05-25T09:48:37.568Z,484.13
2018-05-25T09:51:05.161Z,496.53
2018-05-25T09:53:32.805Z,498.57
2018-05-25T09:56:00.413Z,497.80
2018-05-25T09:58:28.021Z,503.33
2018-05-25T10:00:55.607Z,496.43
2018-05-25T10:03:23.237Z,507.70
2018-05-25T10:05:50.828Z,507.27
2018-05-25T10:08:18.456Z,508.90
2018-05-25T10:10:46.047Z,500.27
2018-05-25T10:13:13.661Z,512.83
2018-05-25T10:15:41.296Z,518.40
2018-05-25T10:18:08.892Z,507.63
2018-05-25T10:20:36.558Z,492.30
2018-05-25T10:23:04.187Z,504.87
2018-05-25T10:25:31.790Z,501.70
2018-05-25T10:27:59.382Z,505.83
2018-05-25T10:30:27.768Z,499.63
2018-05-25T10:32:55.355Z,495.87
2018-05-25T10:35:22.981Z,511.87
2018-05-25T10:37:51.316Z,511.30
2018-05-25T10:40:18.961Z,513.23
2018-05-25T10:42:46.552Z,515.50
2018-05-25T10:45:14.164Z,519.57
2018-05-25T10:47:41.784Z,513.73
2018-05-25T10:50:09.369Z,515.57
2018-05-25T10:52:36.990Z,512.13
2018-05-25T10:55:04.652Z,515.70
2018-05-25T10:57:32.239Z,510.33
2018-05-25T10:59:59.862Z,515.93
2018-05-25T11:02:27.472Z,491.43
2018-05-25T11:04:55.856Z,521.27
2018-05-25T11:07:24.200Z,526.17
2018-05-25T11:09:51.782Z,535.23
2018-05-25T11:12:19.410Z,548.67
2018-05-25T11:14:46.988Z,548.20
2018-05-25T11:17:14.609Z,555.43
2018-05-25T11:19:42.252Z,519.50
2018-05-25T11:22:09.831Z,531.50
2018-05-25T11:24:37.412Z,532.83
2018-05-25T11:27:05.061Z,528.20
2018-05-25T11:29:32.622Z,533.07
2018-05-25T11:32:00.236Z,518.63
2018-05-25T11:34:27.823Z,511.20
2018-05-25T11:36:55.453Z,504.63
2018-05-25T11:39:23.033Z,486.03
2018-05-25T11:41:51.422Z,475.67
2018-05-25T11:44:19.009Z,461.53
2018-05-25T11:46:46.640Z,450.60
2018-05-25T11:49:14.988Z,424.70
2018-05-25T11:51:42.613Z,395.20
2018-05-25T11:54:10.237Z,375.70
2018-05-25T11:56:38.581Z,372.53
2018-05-25T11:59:06.205Z,393.93
2018-05-25T12:01:33.789Z,397.83
2018-05-25T12:04:01.421Z,410.93
2018-05-25T12:06:29.007Z,436.30
2018-05-25T12:08:56.631Z,409.13
2018-05-25T12:11:24.210Z,412.33
2018-05-25T12:13:51.847Z,411.07
2018-05-25T12:16:19.420Z,414.77
2018-05-25T12:18:47.004Z,425.57
2018-05-25T12:21:14.634Z,431.57
2018-05-25T12:23:42.209Z,424.03
2018-05-25T12:26:09.801Z,423.07
2018-05-25T12:28:37.432Z,423.03
2018-05-25T12:31:05.064Z,432.30
2018-05-25T12:33:32.648Z,445.97
2018-05-25T12:36:00.269Z,445.23
2018-05-25T12:38:27.849Z,439.07
2018-05-25T12:40:56.234Z,444.13
2018-05-25T12:43:24.632Z,442.53
2018-05-25T12:45:52.216Z,455.90
2018-05-25T12:48:19.792Z,463.70
2018-05-25T12:50:47.416Z,461.33
2018-05-25T12:53:15.011Z,424.10
2018-05-25T12:55:42.648Z,390.20
2018-05-25T12:58:10.233Z,343.50
2018-05-25T13:00:37.825Z,332.27
2018-05-25T13:03:05.448Z,322.13
2018-05-25T13:05:33.021Z,323.40
2018-05-25T13:08:00.641Z,315.93
2018-05-25T13:10:28.262Z,324.40
2018-05-25T13:12:55.899Z,313.60
2018-05-25T13:15:23.482Z,317.10
2018-05-25T13:17:51.103Z,319.60
2018-05-25T13:20:18.739Z,329.23
2018-05-25T13:22:46.319Z,305.57
2018-05-25T13:25:14.652Z,294.30
2018-05-25T13:27:42.266Z,277.07
2018-05-25T13:30:09.901Z,284.53
2018-05-25T13:32:37.490Z,291.00
2018-05-25T13:35:08.705Z,303.47
2018-05-25T13:37:36.340Z,312.97
2018-05-25T13:40:03.942Z,316.27
2018-05-25T13:42:31.528Z,329.40
2018-05-25T13:44:59.150Z,328.37
2018-05-25T13:47:26.776Z,321.10
2018-05-25T13:49:54.348Z,311.17
2018-05-25T13:52:21.943Z,297.90
2018-05-25T13:54:49.565Z,284.47
2018-05-25T13:57:17.140Z,259.83
2018-05-25T13:59:44.758Z,235.23
2018-05-25T14:02:12.330Z,241.87
2018-05-25T14:04:39.944Z,248.73
2018-05-25T14:07:08.295Z,248.93
2018-05-25T14:09:35.915Z,246.17
2018-05-25T14:12:03.502Z,220.10
2018-05-25T14:14:31.121Z,214.63
2018-05-25T14:16:58.703Z,192.37
2018-05-25T14:19:26.280Z,142.47
2018-05-25T14:21:53.909Z,123.77
2018-05-25T14:24:22.232Z,93.83
2018-05-25T14:26:49.849Z,70.13
2018-05-25T14:29:17.456Z,75.10
2018-05-25T14:31:45.030Z,79.03
2018-05-25T14:34:12.651Z,68.90
2018-05-25T14:36:40.262Z,56.23
2018-05-25T14:39:08.608Z,52.33
2018-05-25T14:41:36.224Z,55.50
2018-05-25T14:44:03.800Z,59.73
2018-05-25T14:46:31.409Z,65.87
2018-05-25T14:48:58.989Z,69.00
2018-05-25T14:51:26.608Z,70.50
2018-05-25T14:53:54.213Z,69.30
2018-05-25T14:56:21.781Z,67.13
2018-05-25T14:58:50.163Z,66.10
2018-05-25T15:01:18.527Z,67.10
2018-05-25T15:03:46.158Z,68.00
2018-05-25T15:06:13.740Z,65.20
2018-05-25T15:08:41.350Z,63.50
2018-05-25T15:11:08.955Z,64.70
2018-05-25T15:13:36.526Z,66.20
2018-05-25T15:16:04.136Z,66.37
2018-05-25T15:18:31.716Z,64.33
2018-05-25T15:20:59.334Z,63.13
2018-05-25T15:23:26.915Z,60.70
2018-05-25T15:25:54.525Z,64.50
2018-05-25T15:28:22.121Z,65.97
2018-05-25T15:30:50.677Z,65.50
2018-05-25T15:33:18.790Z,60.43
2018-05-25T15:35:48.254Z,47.67
2018-05-25T15:40:57.914Z,41.27
2018-05-25T15:43:28.890Z,40.97
2018-05-25T15:46:00.286Z,39.80
2018-05-25T15:48:31.894Z,39.50
2018-05-25T15:51:02.758Z,40.30
2018-05-25T15:53:38.727Z,39.83
2018-05-25T15:56:08.457Z,41.17
2018-05-25T16:01:21.903Z,43.63
2018-05-25T16:03:55.822Z,46.07
2018-05-25T16:06:30.776Z,48.97
2018-05-25T16:11:42.310Z,49.57
2018-05-25T16:14:16.619Z,50.93
2018-05-25T16:16:54.040Z,55.77
2018-05-25T16:22:10.483Z,58.00
2018-05-25T16:24:43.060Z,59.43
2018-05-25T16:27:18.116Z,57.37
2018-05-25T16:32:32.039Z,59.57
2018-05-25T16:35:03.326Z,58.90
2018-05-25T16:37:40.427Z,59.50
2018-05-25T16:40:17.850Z,59.80
2018-05-25T16:42:52.267Z,63.30
2018-05-25T16:45:25.891Z,67.80
2018-05-25T16:48:01.241Z,62.83
2018-05-25T16:53:14.678Z,64.07
2018-05-25T16:55:48.989Z,68.60
2018-05-25T16:58:23.591Z,66.40
2018-05-25T17:00:54.505Z,58.20
2018-05-25T17:03:28.713Z,50.20
2018-05-25T17:06:01.111Z,45.83
2018-05-25T17:08:30.534Z,42.83
2018-05-25T17:11:03.083Z,42.77
2018-05-25T17:16:19.985Z,42.67
2018-05-25T17:21:31.853Z,44.03
2018-05-25T17:24:04.310Z,43.83
2018-05-25T17:26:34.285Z,43.37
2018-05-25T17:31:41.034Z,41.77
2018-05-25T17:34:14.873Z,42.57
2018-05-25T17:39:28.603Z,44.40
2018-05-25T17:42:06.695Z,45.07
2018-05-25T17:44:38.027Z,45.43
2018-05-25T17:52:32.280Z,43.53
2018-05-25T17:55:06.009Z,39.63
2018-05-25T18:00:22.581Z,38.13
2018-05-25T18:03:01.284Z,41.87
2018-05-25T18:05:29.896Z,45.20
2018-05-25T18:13:14.131Z,69.10
2018-05-25T18:15:43.417Z,80.57
2018-05-25T18:18:11.413Z,107.97
2018-05-25T18:20:40.257Z,129.43
2018-05-25T18:23:08.373Z,186.03
2018-05-25T18:25:37.611Z,195.00
2018-05-25T18:28:06.466Z,243.47
2018-05-25T18:30:35.243Z,307.30
2018-05-25T18:33:03.619Z,297.87
2018-05-25T18:35:32.616Z,366.90
2018-05-25T18:38:01.469Z,398.07
2018-05-25T18:40:30.633Z,410.87
2018-05-25T18:43:00.566Z,449.47
2018-05-25T18:45:29.313Z,574.70
2018-05-25T18:47:57.911Z,569.87
2018-05-25T18:50:25.938Z,589.53
2018-05-25T18:52:54.556Z,593.40
2018-05-25T18:55:24.010Z,605.33
2018-05-25T18:57:52.684Z,602.00
2018-05-25T19:00:20.847Z,595.23
2018-05-25T19:02:48.989Z,589.60
2018-05-25T19:05:17.380Z,576.50
2018-05-25T19:07:44.998Z,566.17
2018-05-25T19:10:12.587Z,564.50
2018-05-25T19:12:40.233Z,552.93
2018-05-25T19:15:07.812Z,540.73
2018-05-25T19:17:35.382Z,527.47
2018-05-25T19:20:03.001Z,535.60
2018-05-25T19:22:30.625Z,542.50
2018-05-25T19:24:58.234Z,548.73
2018-05-25T19:27:25.852Z,550.90
2018-05-25T19:29:54.241Z,557.13
2018-05-25T19:32:21.896Z,575.30
2018-05-25T19:34:49.476Z,584.30
2018-05-25T19:37:17.113Z,596.67
2018-05-25T19:39:44.724Z,605.27
2018-05-25T19:42:12.409Z,619.50
2018-05-25T19:44:40.173Z,630.57
2018-05-25T19:47:07.752Z,637.60
2018-05-25T19:49:35.368Z,642.13
2018-05-25T19:52:02.992Z,642.97
2018-05-25T19:54:30.593Z,629.27
2018-05-25T19:56:58.175Z,632.07
2018-05-25T19:59:25.793Z,626.20
2018-05-25T20:01:53.393Z,603.50
2018-05-25T20:04:21.037Z,593.23
2018-05-25T20:06:48.610Z,596.33
2018-05-25T20:09:16.228Z,572.00
2018-05-25T20:11:43.801Z,573.77
2018-05-25T20:14:11.451Z,572.57
2018-05-25T20:16:39.032Z,588.47
2018-05-25T20:19:06.646Z,576.13
2018-05-25T20:21:34.264Z,593.30
2018-05-25T20:24:01.892Z,581.20
2018-05-25T20:26:29.473Z,596.43
2018-05-25T20:28:57.096Z,610.03
2018-05-25T20:31:24.686Z,605.87
2018-05-25T20:33:52.306Z,609.87
2018-05-25T20:36:19.937Z,619.60
2018-05-25T20:38:47.549Z,624.47
2018-05-25T20:41:15.133Z,644.90
2018-05-25T20:43:42.752Z,657.33
2018-05-25T20:46:10.330Z,673.17
2018-05-25T20:48:37.969Z,666.37
2018-05-25T20:51:05.550Z,679.17
2018-05-25T20:53:33.134Z,668.07
2018-05-25T20:56:01.521Z,660.13
2018-05-25T20:58:29.099Z,626.97
2018-05-25T21:00:57.493Z,625.33
2018-05-25T21:03:25.076Z,613.33
2018-05-25T21:05:52.653Z,575.13
2018-05-25T21:08:20.741Z,537.83
2018-05-25T21:10:48.359Z,482.47
2018-05-25T21:13:15.977Z,427.17
2018-05-25T21:15:44.387Z,416.50
2018-05-25T21:18:11.965Z,358.67
2018-05-25T21:20:39.586Z,339.73
2018-05-25T21:23:08.041Z,326.03
2018-05-25T21:25:35.917Z,314.13
2018-05-25T21:28:03.524Z,311.67
2018-05-25T21:30:31.617Z,309.10
2018-05-25T21:32:59.201Z,307.60
2018-05-25T21:35:26.813Z,289.70
2018-05-25T21:37:55.256Z,282.03
2018-05-25T21:40:23.159Z,269.03
2018-05-25T21:42:50.834Z,269.30
2018-05-25T21:45:18.605Z,259.53
2018-05-25T21:47:47.341Z,266.97
2018-05-25T21:50:14.990Z,271.30
2018-05-25T21:52:42.623Z,246.20
2018-05-25T21:55:10.236Z,244.30
2018-05-25T21:57:38.065Z,230.40
2018-05-25T22:00:06.306Z,219.00
2018-05-25T22:02:33.926Z,208.13
2018-05-25T22:05:01.530Z,217.20
2018-05-25T22:07:29.160Z,194.60
2018-05-25T22:09:57.088Z,193.50
2018-05-25T22:12:26.697Z,192.20
2018-05-25T22:14:54.531Z,189.07
2018-05-25T22:17:22.216Z,179.97
2018-05-25T22:19:49.863Z,180.27
2018-05-25T22:22:17.562Z,177.47
2018-05-25T22:24:45.197Z,180.93
2018-05-25T22:27:12.779Z,184.90
2018-05-25T22:29:40.361Z,192.07
2018-05-25T22:32:08.082Z,199.60
2018-05-25T22:34:35.657Z,196.27
2018-05-25T22:37:06.652Z,196.57
2018-05-25T22:39:34.238Z,186.97
2018-05-25T22:42:01.369Z,179.60
2018-05-25T22:44:40.935Z,179.93
2018-05-25T22:47:20.297Z,174.87
2018-05-25T22:49:59.581Z,178.43
2018-05-25T22:52:33.110Z,178.67
2018-05-25T22:55:00.803Z,173.97
2018-05-25T22:57:28.415Z,174.13
2018-05-25T22:59:55.988Z,172.23
2018-05-25T23:02:23.583Z,177.33
2018-05-25T23:04:51.200Z,185.63
2018-05-25T23:07:18.802Z,199.77
2018-05-25T23:09:46.424Z,211.80
2018-05-25T23:12:14.006Z,226.20
2018-05-25T23:14:41.581Z,240.87
2018-05-25T23:17:09.221Z,245.33
2018-05-25T23:19:36.797Z,300.57
2018-05-25T23:22:04.373Z,297.33
2018-05-25T23:24:31.996Z,268.63
2018-05-25T23:26:59.575Z,237.33
2018-05-25T23:29:27.200Z,181.13
2018-05-25T23:31:54.791Z,141.27
2018-05-25T23:34:22.417Z,120.03
2018-05-25T23:36:50.002Z,125.90
2018-05-25T23:39:17.625Z,151.90
2018-05-25T23:41:45.258Z,192.07
2018-05-25T23:44:12.868Z,203.63
2018-05-25T23:46:40.450Z,206.73
2018-05-25T23:49:08.069Z,195.73
2018-05-25T23:51:35.655Z,162.27
2018-05-25T23:54:03.272Z,139.03
2018-05-25T23:56:30.897Z,128.90
2018-05-25T23:58:58.477Z,126.03
